Puget — AEQW — position and weather

sailwx.info

Track history (hours):
 
Tides and Currents Weather Stations Pressure Air Temp Water Temp Dewpoint Dewpoint Depression Visibility Wind Speed Wind Dir Waves Ship Positions

Puget

Last reported at 2015-Mar-25 23:24 UTC. Time now 2015-Mar-27 20:56 UTC.
Position N 47°40' W 122°24'.

Length 20 m; draft 0.2 m.

Type: Ship. MMSI: 369970510.

Date/timePositionNaut miles runAvg speedWind from/ knotsBaromVisibWave heightAir tempDewpointWater temp
2015-Mar-25 23:24N 47°40' W 122°24'0 0.2
2015-Mar-25 22:33N 47°40' W 122°23'0 0.0
2015-Mar-25 21:32N 47°40' W 122°23'0 0.0
2015-Mar-25 20:33N 47°40' W 122°23'2 2.2
2015-Mar-25 19:33N 47°40' W 122°27'1010.0
2015-Mar-25 18:33N 47°30' W 122°30'1010.3
2015-Mar-25 17:33N 47°20' W 122°33'1 0.0
2015-Mar-23 21:29N 47°19' W 122°34'2 2.3
2015-Mar-23 20:33N 47°21' W 122°33'5 5.1
2015-Mar-23 19:30N 47°26' W 122°32'5 5.5
2015-Mar-23 18:33N 47°31' W 122°29'7 6.7
2015-Mar-23 17:32N 47°38' W 122°28'3 3.4
2015-Mar-23 16:33N 47°40' W 122°24'0 0.0
2015-Mar-23 15:32N 47°40' W 122°24'  
2015-Mar-19 21:33N 47°40' W 122°24'6 5.6
2015-Mar-19 20:33N 47°44' W 122°30'6 5.8
2015-Mar-19 19:33N 47°49' W 122°29'7 6.8
2015-Mar-19 18:33N 47°56' W 122°30'6 6.5
2015-Mar-19 17:33N 47°51' W 122°24'8 8.3
2015-Mar-19 16:33N 47°42' W 122°25'3 2.5
2015-Mar-19 15:31N 47°40' W 122°24'0 0.0
2015-Mar-19 14:33N 47°40' W 122°24'0 0.0
2015-Mar-18 23:33N 47°40' W 122°24'2 1.9
2015-Mar-18 22:32N 47°40' W 122°27'7 3.3
2015-Mar-18 20:27N 47°34' W 122°21'3 1.5
2015-Mar-18 18:11N 47°31' W 122°18'4 2.4
2015-Mar-18 16:33N 47°34' W 122°22'5 5.1
2015-Mar-18 15:33N 47°38' W 122°26'2 2.3
2015-Mar-18 14:33N 47°40' W 122°23'0 0.0
2015-Mar-16 22:05N 47°40' W 122°24'2 3.7
2015-Mar-16 21:33N 47°40' W 122°27'2 0.9
2015-Mar-16 19:30N 47°38' W 122°25'2 2.3
2015-Mar-16 18:33N 47°40' W 122°23'0 0.2
2015-Mar-16 17:32N 47°40' W 122°23'0 0.4
2015-Mar-16 16:33N 47°40' W 122°24'0 0.0
2015-Mar-16 15:33N 47°40' W 122°24'  
Track history (hours):
 
Tides and Currents Weather Stations Pressure Air Temp Water Temp Dewpoint Dewpoint Depression Visibility Wind Speed Wind Dir Waves Ship Positions

Puget

Last reported at 2015-Mar-25 23:24 UTC. Time now 2015-Mar-27 20:56 UTC.
Position N 47°40' W 122°24'.

Length 20 m; draft 0.2 m.

Type: Ship. MMSI: 369970510.

Date/timePositionNaut miles runAvg speedWind from/ knotsBaromVisibWave heightAir tempDewpointWater temp
2015-Mar-25 23:24N 47°40' W 122°24'0 0.2
2015-Mar-25 22:33N 47°40' W 122°23'0 0.0
2015-Mar-25 21:32N 47°40' W 122°23'0 0.0
2015-Mar-25 20:33N 47°40' W 122°23'2 2.2
2015-Mar-25 19:33N 47°40' W 122°27'1010.0
2015-Mar-25 18:33N 47°30' W 122°30'1010.3
2015-Mar-25 17:33N 47°20' W 122°33'1 0.0
2015-Mar-23 21:29N 47°19' W 122°34'2 2.3
2015-Mar-23 20:33N 47°21' W 122°33'5 5.1
2015-Mar-23 19:30N 47°26' W 122°32'5 5.5
2015-Mar-23 18:33N 47°31' W 122°29'7 6.7
2015-Mar-23 17:32N 47°38' W 122°28'3 3.4
2015-Mar-23 16:33N 47°40' W 122°24'0 0.0
2015-Mar-23 15:32N 47°40' W 122°24'  
2015-Mar-19 21:33N 47°40' W 122°24'6 5.6
2015-Mar-19 20:33N 47°44' W 122°30'6 5.8
2015-Mar-19 19:33N 47°49' W 122°29'7 6.8
2015-Mar-19 18:33N 47°56' W 122°30'6 6.5
2015-Mar-19 17:33N 47°51' W 122°24'8 8.3
2015-Mar-19 16:33N 47°42' W 122°25'3 2.5
2015-Mar-19 15:31N 47°40' W 122°24'0 0.0
2015-Mar-19 14:33N 47°40' W 122°24'0 0.0
2015-Mar-18 23:33N 47°40' W 122°24'2 1.9
2015-Mar-18 22:32N 47°40' W 122°27'7 3.3
2015-Mar-18 20:27N 47°34' W 122°21'3 1.5
2015-Mar-18 18:11N 47°31' W 122°18'4 2.4
2015-Mar-18 16:33N 47°34' W 122°22'5 5.1
2015-Mar-18 15:33N 47°38' W 122°26'2 2.3
2015-Mar-18 14:33N 47°40' W 122°23'0 0.0
2015-Mar-16 22:05N 47°40' W 122°24'2 3.7
2015-Mar-16 21:33N 47°40' W 122°27'2 0.9
2015-Mar-16 19:30N 47°38' W 122°25'2 2.3
2015-Mar-16 18:33N 47°40' W 122°23'0 0.2
2015-Mar-16 17:32N 47°40' W 122°23'0 0.4
2015-Mar-16 16:33N 47°40' W 122°24'0 0.0
2015-Mar-16 15:33N 47°40' W 122°24'  

Dump ship's entire track history